sensor_id;sensor_type;location;lat;lon;timestamp;pressure;altitude;pressure_sealevel;temperature;humidity
49102;BME280;34913;47.520;19.186;2022-07-23T00:00:45;99782.53;;;24.86;54.20
49102;BME280;34913;47.520;19.186;2022-07-23T00:03:12;99776.09;;;24.80;55.27
49102;BME280;34913;47.520;19.186;2022-07-23T00:05:37;99780.09;;;24.77;54.66
49102;BME280;34913;47.520;19.186;2022-07-23T00:08:03;99771.59;;;24.74;56.84
49102;BME280;34913;47.520;19.186;2022-07-23T00:10:29;99771.44;;;24.69;54.56
49102;BME280;34913;47.520;19.186;2022-07-23T00:12:54;99772.25;;;24.69;55.74
49102;BME280;34913;47.520;19.186;2022-07-23T00:15:19;99779.41;;;24.64;56.12
49102;BME280;34913;47.520;19.186;2022-07-23T00:17:45;99769.00;;;24.61;56.51
49102;BME280;34913;47.520;19.186;2022-07-23T00:20:11;99767.78;;;24.57;56.56
49102;BME280;34913;47.520;19.186;2022-07-23T00:22:36;99777.81;;;24.56;55.00
49102;BME280;34913;47.520;19.186;2022-07-23T00:25:02;99781.84;;;24.47;55.30
49102;BME280;34913;47.520;19.186;2022-07-23T00:27:27;99777.31;;;24.41;57.02
49102;BME280;34913;47.520;19.186;2022-07-23T00:29:53;99787.63;;;24.32;56.17
49102;BME280;34913;47.520;19.186;2022-07-23T00:32:18;99783.72;;;24.21;54.11
49102;BME280;34913;47.520;19.186;2022-07-23T00:34:44;99799.94;;;24.35;54.88
49102;BME280;34913;47.520;19.186;2022-07-23T00:37:09;99789.91;;;24.35;54.34
49102;BME280;34913;47.520;19.186;2022-07-23T00:39:35;99783.59;;;24.41;55.32
49102;BME280;34913;47.520;19.186;2022-07-23T00:42:00;99785.09;;;24.37;55.11
49102;BME280;34913;47.520;19.186;2022-07-23T00:44:27;99783.38;;;24.43;55.40
49102;BME280;34913;47.520;19.186;2022-07-23T00:46:55;99783.38;;;24.43;55.53
49102;BME280;34913;47.520;19.186;2022-07-23T00:49:25;99786.66;;;24.20;55.44
49102;BME280;34913;47.520;19.186;2022-07-23T00:51:51;99795.22;;;24.17;55.89
49102;BME280;34913;47.520;19.186;2022-07-23T00:54:18;99795.06;;;24.12;56.42
49102;BME280;34913;47.520;19.186;2022-07-23T00:56:45;99795.66;;;24.14;56.04
49102;BME280;34913;47.520;19.186;2022-07-23T00:59:11;99793.44;;;24.04;55.29
49102;BME280;34913;47.520;19.186;2022-07-23T01:01:37;99792.44;;;23.99;56.26
49102;BME280;34913;47.520;19.186;2022-07-23T01:04:03;99786.81;;;23.93;55.55
49102;BME280;34913;47.520;19.186;2022-07-23T01:06:29;99787.03;;;23.92;56.55
49102;BME280;34913;47.520;19.186;2022-07-23T01:08:55;99786.91;;;23.87;57.39
49102;BME280;34913;47.520;19.186;2022-07-23T01:11:23;99783.56;;;23.85;57.05
49102;BME280;34913;47.520;19.186;2022-07-23T01:13:49;99786.25;;;23.85;56.99
49102;BME280;34913;47.520;19.186;2022-07-23T01:16:14;99786.94;;;23.80;56.92
49102;BME280;34913;47.520;19.186;2022-07-23T01:18:40;99785.69;;;23.76;57.10
49102;BME280;34913;47.520;19.186;2022-07-23T01:21:05;99783.44;;;23.73;57.87
49102;BME280;34913;47.520;19.186;2022-07-23T01:23:31;99778.44;;;23.70;58.69
49102;BME280;34913;47.520;19.186;2022-07-23T01:25:56;99780.56;;;23.61;57.92
49102;BME280;34913;47.520;19.186;2022-07-23T01:28:22;99778.47;;;23.63;57.94
49102;BME280;34913;47.520;19.186;2022-07-23T01:30:49;99780.78;;;23.60;57.63
49102;BME280;34913;47.520;19.186;2022-07-23T01:33:15;99783.25;;;23.61;58.33
49102;BME280;34913;47.520;19.186;2022-07-23T01:35:40;99777.22;;;23.59;58.51
49102;BME280;34913;47.520;19.186;2022-07-23T01:38:06;99781.81;;;23.59;58.59
49102;BME280;34913;47.520;19.186;2022-07-23T01:40:31;99778.91;;;23.60;58.81
49102;BME280;34913;47.520;19.186;2022-07-23T01:42:57;99782.25;;;23.56;58.65
49102;BME280;34913;47.520;19.186;2022-07-23T01:45:22;99782.84;;;23.58;59.76
49102;BME280;34913;47.520;19.186;2022-07-23T01:47:48;99779.94;;;23.53;60.20
49102;BME280;34913;47.520;19.186;2022-07-23T01:50:13;99781.44;;;23.49;60.53
49102;BME280;34913;47.520;19.186;2022-07-23T01:52:39;99778.31;;;23.45;60.19
49102;BME280;34913;47.520;19.186;2022-07-23T01:55:05;99780.88;;;23.40;59.91
49102;BME280;34913;47.520;19.186;2022-07-23T01:57:31;99775.03;;;23.36;60.27
49102;BME280;34913;47.520;19.186;2022-07-23T01:59:56;99780.88;;;23.33;59.73
49102;BME280;34913;47.520;19.186;2022-07-23T02:02:22;99774.63;;;23.33;59.98
49102;BME280;34913;47.520;19.186;2022-07-23T02:04:47;99776.06;;;23.35;60.13
49102;BME280;34913;47.520;19.186;2022-07-23T02:07:12;99765.72;;;23.26;59.61
49102;BME280;34913;47.520;19.186;2022-07-23T02:09:38;99775.50;;;23.27;59.89
49102;BME280;34913;47.520;19.186;2022-07-23T02:12:04;99772.19;;;23.25;60.20
49102;BME280;34913;47.520;19.186;2022-07-23T02:14:29;99775.28;;;23.22;60.00
49102;BME280;34913;47.520;19.186;2022-07-23T02:16:54;99781.16;;;23.19;60.76
49102;BME280;34913;47.520;19.186;2022-07-23T02:19:20;99767.38;;;23.20;60.18
49102;BME280;34913;47.520;19.186;2022-07-23T02:21:46;99777.81;;;23.23;60.51
49102;BME280;34913;47.520;19.186;2022-07-23T02:24:11;99773.22;;;23.24;60.27
49102;BME280;34913;47.520;19.186;2022-07-23T02:26:37;99780.09;;;23.20;60.42
49102;BME280;34913;47.520;19.186;2022-07-23T02:29:03;99778.88;;;23.16;60.12
49102;BME280;34913;47.520;19.186;2022-07-23T02:31:29;99782.66;;;23.08;60.34
49102;BME280;34913;47.520;19.186;2022-07-23T02:33:55;99778.31;;;23.00;60.89
49102;BME280;34913;47.520;19.186;2022-07-23T02:36:21;99779.78;;;22.90;61.26
49102;BME280;34913;47.520;19.186;2022-07-23T02:38:46;99774.56;;;22.88;61.09
49102;BME280;34913;47.520;19.186;2022-07-23T02:41:12;99783.31;;;22.83;61.23
49102;BME280;34913;47.520;19.186;2022-07-23T02:43:38;99787.03;;;22.82;61.72
49102;BME280;34913;47.520;19.186;2022-07-23T02:46:03;99790.38;;;22.84;60.97
49102;BME280;34913;47.520;19.186;2022-07-23T02:48:29;99792.66;;;22.81;61.68
49102;BME280;34913;47.520;19.186;2022-07-23T02:50:54;99784.97;;;22.84;61.43
49102;BME280;34913;47.520;19.186;2022-07-23T02:53:22;99787.03;;;22.82;61.73
49102;BME280;34913;47.520;19.186;2022-07-23T02:55:47;99789.13;;;22.74;61.38
49102;BME280;34913;47.520;19.186;2022-07-23T02:58:13;99787.09;;;22.69;60.78
49102;BME280;34913;47.520;19.186;2022-07-23T03:00:38;99783.94;;;22.72;61.31
49102;BME280;34913;47.520;19.186;2022-07-23T03:03:03;99782.94;;;22.60;60.84
49102;BME280;34913;47.520;19.186;2022-07-23T03:05:29;99777.53;;;22.60;61.09
49102;BME280;34913;47.520;19.186;2022-07-23T03:07:54;99774.22;;;22.51;61.83
49102;BME280;34913;47.520;19.186;2022-07-23T03:10:20;99781.06;;;22.54;62.35
49102;BME280;34913;47.520;19.186;2022-07-23T03:12:45;99775.44;;;22.55;62.19
49102;BME280;34913;47.520;19.186;2022-07-23T03:15:10;99783.34;;;22.64;61.93
49102;BME280;34913;47.520;19.186;2022-07-23T03:17:36;99780.19;;;22.73;62.19
49102;BME280;34913;47.520;19.186;2022-07-23T03:20:02;99780.84;;;22.62;62.75
49102;BME280;34913;47.520;19.186;2022-07-23T03:22:27;99779.41;;;22.60;62.90
49102;BME280;34913;47.520;19.186;2022-07-23T03:24:52;99784.38;;;22.56;62.71
49102;BME280;34913;47.520;19.186;2022-07-23T03:27:25;99787.09;;;22.56;62.90
49102;BME280;34913;47.520;19.186;2022-07-23T03:29:53;99783.56;;;22.55;63.84
49102;BME280;34913;47.520;19.186;2022-07-23T03:32:19;99764.22;;;22.52;63.74
49102;BME280;34913;47.520;19.186;2022-07-23T03:34:45;99777.72;;;22.58;63.88
49102;BME280;34913;47.520;19.186;2022-07-23T03:37:10;99785.81;;;22.65;64.35
49102;BME280;34913;47.520;19.186;2022-07-23T03:39:36;99781.47;;;22.64;64.24
49102;BME280;34913;47.520;19.186;2022-07-23T03:42:02;99783.53;;;22.69;64.68
49102;BME280;34913;47.520;19.186;2022-07-23T03:44:27;99787.25;;;22.74;63.87
49102;BME280;34913;47.520;19.186;2022-07-23T03:46:53;99781.63;;;22.82;63.95
49102;BME280;34913;47.520;19.186;2022-07-23T03:49:18;99782.88;;;22.80;65.02
49102;BME280;34913;47.520;19.186;2022-07-23T03:51:44;99786.63;;;22.79;64.40
49102;BME280;34913;47.520;19.186;2022-07-23T03:54:09;99786.63;;;22.79;64.86
49102;BME280;34913;47.520;19.186;2022-07-23T03:56:35;99785.19;;;22.76;64.74
49102;BME280;34913;47.520;19.186;2022-07-23T03:59:01;99790.19;;;22.73;63.33
49102;BME280;34913;47.520;19.186;2022-07-23T04:01:26;99794.31;;;22.82;63.65
49102;BME280;34913;47.520;19.186;2022-07-23T04:03:52;99790.59;;;22.83;64.34
49102;BME280;34913;47.520;19.186;2022-07-23T04:06:17;99788.09;;;22.81;64.60
49102;BME280;34913;47.520;19.186;2022-07-23T04:08:43;99801.63;;;22.88;63.09
49102;BME280;34913;47.520;19.186;2022-07-23T04:11:08;99804.72;;;22.98;62.61
49102;BME280;34913;47.520;19.186;2022-07-23T04:13:34;99798.66;;;23.16;61.94
49102;BME280;34913;47.520;19.186;2022-07-23T04:15:59;99797.34;;;23.38;60.77
49102;BME280;34913;47.520;19.186;2022-07-23T04:18:25;99794.25;;;23.73;59.96
49102;BME280;34913;47.520;19.186;2022-07-23T04:20:51;99802.63;;;24.03;57.42
49102;BME280;34913;47.520;19.186;2022-07-23T04:23:17;99795.56;;;24.34;59.13
49102;BME280;34913;47.520;19.186;2022-07-23T04:25:42;99799.84;;;24.66;57.60
49102;BME280;34913;47.520;19.186;2022-07-23T04:28:08;99793.38;;;24.86;54.63
49102;BME280;34913;47.520;19.186;2022-07-23T04:30:34;99801.66;;;25.34;53.88
49102;BME280;34913;47.520;19.186;2022-07-23T04:32:59;99799.00;;;25.46;52.19
49102;BME280;34913;47.520;19.186;2022-07-23T04:35:25;99799.66;;;25.59;51.87
49102;BME280;34913;47.520;19.186;2022-07-23T04:37:50;99811.66;;;25.70;53.43
49102;BME280;34913;47.520;19.186;2022-07-23T04:40:15;99804.13;;;25.72;52.04
49102;BME280;34913;47.520;19.186;2022-07-23T04:42:41;99801.91;;;25.63;53.15
49102;BME280;34913;47.520;19.186;2022-07-23T04:45:07;99802.25;;;25.54;53.55
49102;BME280;34913;47.520;19.186;2022-07-23T04:47:32;99805.63;;;25.50;52.75
49102;BME280;34913;47.520;19.186;2022-07-23T04:49:58;99807.44;;;25.56;53.67
49102;BME280;34913;47.520;19.186;2022-07-23T04:52:23;99810.44;;;25.66;52.67
49102;BME280;34913;47.520;19.186;2022-07-23T04:54:49;99813.25;;;25.78;52.42
49102;BME280;34913;47.520;19.186;2022-07-23T04:57:14;99816.06;;;26.13;50.91
49102;BME280;34913;47.520;19.186;2022-07-23T04:59:40;99815.03;;;26.26;50.97
49102;BME280;34913;47.520;19.186;2022-07-23T05:02:05;99808.44;;;26.33;50.72
49102;BME280;34913;47.520;19.186;2022-07-23T05:04:31;99814.63;;;26.40;49.66
49102;BME280;34913;47.520;19.186;2022-07-23T05:06:57;99815.69;;;26.39;49.27
49102;BME280;34913;47.520;19.186;2022-07-23T05:09:23;99813.81;;;26.40;51.18
49102;BME280;34913;47.520;19.186;2022-07-23T05:11:49;99808.47;;;26.68;48.94
49102;BME280;34913;47.520;19.186;2022-07-23T05:14:14;99807.78;;;26.85;47.04
49102;BME280;34913;47.520;19.186;2022-07-23T05:16:40;99807.56;;;27.10;48.00
49102;BME280;34913;47.520;19.186;2022-07-23T05:19:05;99804.69;;;27.28;46.34
49102;BME280;34913;47.520;19.186;2022-07-23T05:21:31;99808.03;;;27.59;47.90
49102;BME280;34913;47.520;19.186;2022-07-23T05:23:56;99808.28;;;27.86;45.23
49102;BME280;34913;47.520;19.186;2022-07-23T05:26:21;99805.97;;;28.23;47.54
49102;BME280;34913;47.520;19.186;2022-07-23T05:28:47;99806.25;;;28.38;43.51
49102;BME280;34913;47.520;19.186;2022-07-23T05:31:12;99802.69;;;28.54;43.35
49102;BME280;34913;47.520;19.186;2022-07-23T05:33:38;99814.50;;;28.77;43.09
49102;BME280;34913;47.520;19.186;2022-07-23T05:36:04;99813.94;;;28.91;42.67
49102;BME280;34913;47.520;19.186;2022-07-23T05:38:31;99814.03;;;29.40;41.40
49102;BME280;34913;47.520;19.186;2022-07-23T05:40:56;99814.38;;;29.66;41.93
49102;BME280;34913;47.520;19.186;2022-07-23T05:43:22;99808.47;;;30.06;41.96
49102;BME280;34913;47.520;19.186;2022-07-23T05:45:47;99809.31;;;30.07;40.40
49102;BME280;34913;47.520;19.186;2022-07-23T05:48:13;99805.63;;;30.18;39.52
49102;BME280;34913;47.520;19.186;2022-07-23T05:50:38;99812.88;;;30.07;39.36
49102;BME280;34913;47.520;19.186;2022-07-23T05:53:04;99809.81;;;30.30;39.96
49102;BME280;34913;47.520;19.186;2022-07-23T05:55:29;99800.66;;;30.47;38.88
49102;BME280;34913;47.520;19.186;2022-07-23T05:57:57;99807.81;;;30.53;38.18
49102;BME280;34913;47.520;19.186;2022-07-23T06:00:22;99803.38;;;30.79;39.28
49102;BME280;34913;47.520;19.186;2022-07-23T06:02:48;99803.69;;;30.82;38.88
49102;BME280;34913;47.520;19.186;2022-07-23T06:05:14;99806.84;;;31.06;35.88
49102;BME280;34913;47.520;19.186;2022-07-23T06:07:40;99804.69;;;31.19;36.48
49102;BME280;34913;47.520;19.186;2022-07-23T06:10:06;99810.50;;;31.27;36.98
49102;BME280;34913;47.520;19.186;2022-07-23T06:12:31;99803.28;;;31.74;37.00
49102;BME280;34913;47.520;19.186;2022-07-23T06:14:57;99807.47;;;31.97;35.53
49102;BME280;34913;47.520;19.186;2022-07-23T06:17:22;99804.19;;;32.00;33.97
49102;BME280;34913;47.520;19.186;2022-07-23T06:19:48;99796.53;;;32.17;34.55
49102;BME280;34913;47.520;19.186;2022-07-23T06:22:13;99787.19;;;32.18;34.21
49102;BME280;34913;47.520;19.186;2022-07-23T06:24:39;99782.25;;;32.50;32.77
49102;BME280;34913;47.520;19.186;2022-07-23T06:27:05;99788.28;;;32.88;32.44
49102;BME280;34913;47.520;19.186;2022-07-23T06:29:30;99784.03;;;33.16;33.12
49102;BME280;34913;47.520;19.186;2022-07-23T06:31:56;99783.22;;;33.21;31.29
49102;BME280;34913;47.520;19.186;2022-07-23T06:34:21;99785.81;;;33.56;32.09
49102;BME280;34913;47.520;19.186;2022-07-23T06:36:46;99784.06;;;33.76;31.91
49102;BME280;34913;47.520;19.186;2022-07-23T06:39:12;99784.81;;;33.86;31.67
49102;BME280;34913;47.520;19.186;2022-07-23T06:41:37;99781.75;;;34.27;32.58
49102;BME280;34913;47.520;19.186;2022-07-23T06:44:03;99783.16;;;34.59;31.12
49102;BME280;34913;47.520;19.186;2022-07-23T06:46:29;99787.66;;;34.79;29.29
49102;BME280;34913;47.520;19.186;2022-07-23T06:48:54;99786.72;;;34.93;29.41
49102;BME280;34913;47.520;19.186;2022-07-23T06:51:20;99786.13;;;34.96;29.38
49102;BME280;34913;47.520;19.186;2022-07-23T06:53:46;99776.53;;;35.13;28.58
49102;BME280;34913;47.520;19.186;2022-07-23T06:56:12;99786.63;;;35.22;29.64
49102;BME280;34913;47.520;19.186;2022-07-23T06:58:37;99778.72;;;35.16;29.89
49102;BME280;34913;47.520;19.186;2022-07-23T07:01:02;99776.41;;;35.23;28.88
49102;BME280;34913;47.520;19.186;2022-07-23T07:03:28;99778.72;;;35.16;30.02
49102;BME280;34913;47.520;19.186;2022-07-23T07:05:53;99777.59;;;35.17;28.63
49102;BME280;34913;47.520;19.186;2022-07-23T07:08:19;99784.31;;;35.30;28.42
49102;BME280;34913;47.520;19.186;2022-07-23T07:10:44;99782.16;;;35.69;30.60
49102;BME280;34913;47.520;19.186;2022-07-23T07:13:13;99776.72;;;35.64;28.36
49102;BME280;34913;47.520;19.186;2022-07-23T07:15:38;99769.13;;;35.75;28.79
49102;BME280;34913;47.520;19.186;2022-07-23T07:18:04;99776.38;;;35.90;28.32
49102;BME280;34913;47.520;19.186;2022-07-23T07:20:29;99770.13;;;36.17;27.61
49102;BME280;34913;47.520;19.186;2022-07-23T07:22:54;99776.59;;;36.26;27.26
49102;BME280;34913;47.520;19.186;2022-07-23T07:25:26;99759.94;;;36.31;27.78
49102;BME280;34913;47.520;19.186;2022-07-23T07:27:51;99765.28;;;36.60;27.91
49102;BME280;34913;47.520;19.186;2022-07-23T07:30:17;99768.09;;;36.87;25.90
49102;BME280;34913;47.520;19.186;2022-07-23T07:32:42;99766.50;;;36.81;26.68
49102;BME280;34913;47.520;19.186;2022-07-23T07:35:08;99769.72;;;37.02;27.43
49102;BME280;34913;47.520;19.186;2022-07-23T07:37:34;99766.78;;;36.99;26.84
49102;BME280;34913;47.520;19.186;2022-07-23T07:39:59;99765.41;;;36.82;26.66
49102;BME280;34913;47.520;19.186;2022-07-23T07:42:25;99769.31;;;36.95;27.73
49102;BME280;34913;47.520;19.186;2022-07-23T07:44:50;99766.41;;;36.59;29.44
49102;BME280;34913;47.520;19.186;2022-07-23T07:47:16;99769.81;;;36.83;27.70
49102;BME280;34913;47.520;19.186;2022-07-23T07:49:44;99768.50;;;37.08;26.47
49102;BME280;34913;47.520;19.186;2022-07-23T07:52:10;99769.63;;;37.35;26.38
49102;BME280;34913;47.520;19.186;2022-07-23T07:54:36;99773.31;;;37.16;25.83
49102;BME280;34913;47.520;19.186;2022-07-23T07:57:02;99762.94;;;37.36;26.13
49102;BME280;34913;47.520;19.186;2022-07-23T07:59:27;99753.00;;;37.49;25.96
49102;BME280;34913;47.520;19.186;2022-07-23T08:01:53;99754.53;;;37.55;26.87
49102;BME280;34913;47.520;19.186;2022-07-23T08:04:18;99753.03;;;37.71;27.06
49102;BME280;34913;47.520;19.186;2022-07-23T08:06:44;99750.13;;;37.54;27.25
49102;BME280;34913;47.520;19.186;2022-07-23T08:09:09;99757.13;;;37.73;26.05
49102;BME280;34913;47.520;19.186;2022-07-23T08:11:35;99757.81;;;37.93;25.13
49102;BME280;34913;47.520;19.186;2022-07-23T08:14:00;99755.66;;;38.12;23.43
49102;BME280;34913;47.520;19.186;2022-07-23T08:16:25;99765.59;;;38.13;24.66
49102;BME280;34913;47.520;19.186;2022-07-23T08:18:51;99762.47;;;38.06;24.36
49102;BME280;34913;47.520;19.186;2022-07-23T08:21:16;99765.28;;;38.15;23.70
49102;BME280;34913;47.520;19.186;2022-07-23T08:23:42;99761.50;;;37.88;23.62
49102;BME280;34913;47.520;19.186;2022-07-23T08:26:07;99751.13;;;37.94;25.23
49102;BME280;34913;47.520;19.186;2022-07-23T08:28:33;99758.50;;;38.21;24.57
49102;BME280;34913;47.520;19.186;2022-07-23T08:30:59;99765.56;;;38.27;24.51
49102;BME280;34913;47.520;19.186;2022-07-23T08:33:25;99753.44;;;38.45;24.07
49102;BME280;34913;47.520;19.186;2022-07-23T08:35:51;99757.41;;;38.53;23.50
49102;BME280;34913;47.520;19.186;2022-07-23T08:38:20;99761.09;;;38.71;23.79
49102;BME280;34913;47.520;19.186;2022-07-23T08:40:48;99761.72;;;38.68;22.71
49102;BME280;34913;47.520;19.186;2022-07-23T08:43:17;99758.91;;;38.59;23.11
49102;BME280;34913;47.520;19.186;2022-07-23T08:45:45;99761.09;;;38.71;24.02
49102;BME280;34913;47.520;19.186;2022-07-23T08:48:21;99761.81;;;38.85;23.39
49102;BME280;34913;47.520;19.186;2022-07-23T08:50:49;99755.22;;;39.03;23.91
49102;BME280;34913;47.520;19.186;2022-07-23T08:53:16;99762.53;;;38.99;23.82
49102;BME280;34913;47.520;19.186;2022-07-23T08:55:46;99765.13;;;38.96;23.61
49102;BME280;34913;47.520;19.186;2022-07-23T08:58:12;99753.34;;;38.81;22.46
49102;BME280;34913;47.520;19.186;2022-07-23T09:00:38;99753.94;;;38.78;22.59
49102;BME280;34913;47.520;19.186;2022-07-23T09:03:03;99747.69;;;38.64;23.12
49102;BME280;34913;47.520;19.186;2022-07-23T09:05:29;99750.22;;;38.83;22.64
49102;BME280;34913;47.520;19.186;2022-07-23T09:08:11;99752.19;;;38.83;23.06
49102;BME280;34913;47.520;19.186;2022-07-23T09:10:47;99748.28;;;38.84;23.63
49102;BME280;34913;47.520;19.186;2022-07-23T09:15:51;99748.19;;;39.06;22.57
49102;BME280;34913;47.520;19.186;2022-07-23T09:18:17;99746.34;;;38.93;23.09
49102;BME280;34913;47.520;19.186;2022-07-23T09:20:45;99745.06;;;38.99;24.30
49102;BME280;34913;47.520;19.186;2022-07-23T09:23:10;99752.66;;;39.16;22.59
49102;BME280;34913;47.520;19.186;2022-07-23T09:25:36;99751.94;;;39.10;22.83
49102;BME280;34913;47.520;19.186;2022-07-23T09:28:02;99758.28;;;39.02;23.20
49102;BME280;34913;47.520;19.186;2022-07-23T09:30:32;99747.97;;;38.94;22.38
49102;BME280;34913;47.520;19.186;2022-07-23T09:33:07;99745.88;;;38.99;22.66
49102;BME280;34913;47.520;19.186;2022-07-23T09:35:55;99737.50;;;38.82;23.75
49102;BME280;34913;47.520;19.186;2022-07-23T09:38:23;99741.47;;;38.98;21.98
49102;BME280;34913;47.520;19.186;2022-07-23T09:41:08;99732.31;;;38.98;24.68
49102;BME280;34913;47.520;19.186;2022-07-23T09:43:33;99733.81;;;38.95;23.08
49102;BME280;34913;47.520;19.186;2022-07-23T09:48:43;99738.84;;;38.93;22.64
49102;BME280;34913;47.520;19.186;2022-07-23T09:51:08;99727.72;;;38.93;23.16
49102;BME280;34913;47.520;19.186;2022-07-23T09:53:34;99719.63;;;38.66;23.78
49102;BME280;34913;47.520;19.186;2022-07-23T09:56:00;99727.72;;;38.85;22.31
49102;BME280;34913;47.520;19.186;2022-07-23T09:58:27;99728.38;;;38.90;22.03
49102;BME280;34913;47.520;19.186;2022-07-23T10:00:53;99731.34;;;39.02;22.58
49102;BME280;34913;47.520;19.186;2022-07-23T10:03:19;99727.66;;;39.16;22.64
49102;BME280;34913;47.520;19.186;2022-07-23T10:05:46;99724.56;;;39.26;23.63
49102;BME280;34913;47.520;19.186;2022-07-23T10:08:12;99718.72;;;39.19;23.21
49102;BME280;34913;47.520;19.186;2022-07-23T10:10:41;99718.84;;;39.22;22.11
49102;BME280;34913;47.520;19.186;2022-07-23T10:13:06;99715.13;;;39.27;22.45
49102;BME280;34913;47.520;19.186;2022-07-23T10:15:51;99720.00;;;39.30;22.42
49102;BME280;34913;47.520;19.186;2022-07-23T10:18:17;99715.94;;;39.36;22.58
49102;BME280;34913;47.520;19.186;2022-07-23T10:20:42;99711.69;;;39.30;20.75
49102;BME280;34913;47.520;19.186;2022-07-23T10:23:24;99704.97;;;39.14;21.98
49102;BME280;34913;47.520;19.186;2022-07-23T10:26:38;99700.72;;;39.16;21.97
49102;BME280;34913;47.520;19.186;2022-07-23T10:29:00;99695.78;;;39.04;21.56
49102;BME280;34913;47.520;19.186;2022-07-23T10:34:17;99709.56;;;38.78;21.89
49102;BME280;34913;47.520;19.186;2022-07-23T10:39:44;99697.22;;;38.53;20.02
49102;BME280;34913;47.520;19.186;2022-07-23T10:42:12;99701.22;;;38.70;21.36
49102;BME280;34913;47.520;19.186;2022-07-23T10:44:41;99699.16;;;38.84;21.39
49102;BME280;34913;47.520;19.186;2022-07-23T10:47:08;99692.81;;;39.01;22.01
49102;BME280;34913;47.520;19.186;2022-07-23T10:49:53;99680.28;;;39.12;23.24
49102;BME280;34913;47.520;19.186;2022-07-23T10:57:49;99685.06;;;39.29;19.44
49102;BME280;34913;47.520;19.186;2022-07-23T11:00:17;99685.88;;;39.29;21.22
49102;BME280;34913;47.520;19.186;2022-07-23T11:02:46;99679.19;;;39.22;23.11
49102;BME280;34913;47.520;19.186;2022-07-23T11:05:17;99675.72;;;39.16;22.43
49102;BME280;34913;47.520;19.186;2022-07-23T11:10:41;99675.09;;;39.28;22.20
49102;BME280;34913;47.520;19.186;2022-07-23T11:34:35;99651.41;;;39.13;21.14
49102;BME280;34913;47.520;19.186;2022-07-23T11:37:03;99644.19;;;39.12;20.80
49102;BME280;34913;47.520;19.186;2022-07-23T11:39:30;99639.59;;;39.07;21.35
49102;BME280;34913;47.520;19.186;2022-07-23T11:41:56;99631.50;;;39.20;22.16
49102;BME280;34913;47.520;19.186;2022-07-23T11:44:37;99623.63;;;39.04;20.62
49102;BME280;34913;47.520;19.186;2022-07-23T11:47:10;99622.28;;;39.02;22.42
49102;BME280;34913;47.520;19.186;2022-07-23T11:49:37;99625.25;;;39.05;21.39
49102;BME280;34913;47.520;19.186;2022-07-23T11:52:10;99618.59;;;39.15;21.40
49102;BME280;34913;47.520;19.186;2022-07-23T11:55:06;99624.47;;;39.22;21.33
49102;BME280;34913;47.520;19.186;2022-07-23T11:57:34;99619.22;;;39.12;21.08
49102;BME280;34913;47.520;19.186;2022-07-23T12:00:07;99611.41;;;39.14;20.79
49102;BME280;34913;47.520;19.186;2022-07-23T12:02:36;99607.78;;;39.05;20.46
49102;BME280;34913;47.520;19.186;2022-07-23T12:05:01;99605.66;;;39.11;21.05
49102;BME280;34913;47.520;19.186;2022-07-23T12:07:44;99604.06;;;39.27;20.64
49102;BME280;34913;47.520;19.186;2022-07-23T12:12:49;99586.41;;;39.31;20.87
49102;BME280;34913;47.520;19.186;2022-07-23T12:15:16;99584.28;;;39.46;20.10
49102;BME280;34913;47.520;19.186;2022-07-23T12:17:46;99588.19;;;39.62;21.19
49102;BME280;34913;47.520;19.186;2022-07-23T12:20:15;99580.00;;;39.74;20.70
49102;BME280;34913;47.520;19.186;2022-07-23T12:22:49;99576.91;;;39.76;20.40
49102;BME280;34913;47.520;19.186;2022-07-23T12:25:16;99574.13;;;39.76;19.02
49102;BME280;34913;47.520;19.186;2022-07-23T12:27:43;99571.16;;;39.72;19.59
49102;BME280;34913;47.520;19.186;2022-07-23T12:33:13;99562.16;;;39.84;19.96
49102;BME280;34913;47.520;19.186;2022-07-23T12:35:44;99559.28;;;39.46;20.35
49102;BME280;34913;47.520;19.186;2022-07-23T12:38:17;99565.63;;;39.55;20.53
49102;BME280;34913;47.520;19.186;2022-07-23T12:40:44;99551.25;;;39.53;20.43
49102;BME280;34913;47.520;19.186;2022-07-23T12:55:50;99544.41;;;39.68;19.51
49102;BME280;34913;47.520;19.186;2022-07-23T12:58:17;99542.41;;;39.77;19.54
49102;BME280;34913;47.520;19.186;2022-07-23T13:00:53;99544.16;;;39.81;18.21
49102;BME280;34913;47.520;19.186;2022-07-23T13:03:28;99542.22;;;39.73;19.79
49102;BME280;34913;47.520;19.186;2022-07-23T13:05:54;99544.03;;;39.78;18.20
49102;BME280;34913;47.520;19.186;2022-07-23T13:08:20;99549.94;;;39.68;19.76
49102;BME280;34913;47.520;19.186;2022-07-23T13:10:45;99535.56;;;39.57;20.26
49102;BME280;34913;47.520;19.186;2022-07-23T13:13:16;99538.06;;;39.06;22.35
49102;BME280;34913;47.520;19.186;2022-07-23T13:15:43;99528.13;;;39.14;20.21
49102;BME280;34913;47.520;19.186;2022-07-23T13:18:08;99526.31;;;38.92;22.43
49102;BME280;34913;47.520;19.186;2022-07-23T13:20:34;99523.88;;;38.82;21.69
49102;BME280;34913;47.520;19.186;2022-07-23T13:23:00;99507.31;;;38.51;20.44
49102;BME280;34913;47.520;19.186;2022-07-23T13:25:26;99513.03;;;38.54;20.19
49102;BME280;34913;47.520;19.186;2022-07-23T13:27:52;99513.00;;;38.46;20.10
49102;BME280;34913;47.520;19.186;2022-07-23T13:30:17;99506.50;;;38.50;20.99
49102;BME280;34913;47.520;19.186;2022-07-23T13:32:43;99510.31;;;38.72;19.79
49102;BME280;34913;47.520;19.186;2022-07-23T13:35:09;99503.78;;;38.76;19.05
49102;BME280;34913;47.520;19.186;2022-07-23T13:37:35;99495.31;;;38.81;19.20
49102;BME280;34913;47.520;19.186;2022-07-23T13:40:01;99503.16;;;38.79;19.55
49102;BME280;34913;47.520;19.186;2022-07-23T13:42:26;99490.09;;;38.71;20.23
49102;BME280;34913;47.520;19.186;2022-07-23T13:44:52;99490.38;;;38.78;18.66
49102;BME280;34913;47.520;19.186;2022-07-23T13:47:18;99483.16;;;38.43;19.51